Time;durP1;ratioP1;P1;durP2;ratioP2;P2;SDS_P1;SDS_P2;PMS_P1;PMS_P2;Temp;Humidity;BMP_temperature;BMP_pressure;BME280_temperature;BME280_humidity;BME280_pressure;Samples;Min_cycle;Max_cycle;Signal;HPM_P1;HPM_P2
2023/07/29 00:01:40;;;;;;;4.85;3.63;;;;;;;-145.41;100.00;58600.66;4991315;28;20084;-73
2023/07/29 00:04:06;;;;;;;4.95;3.30;;;;;;;-145.41;100.00;58600.66;4990632;28;20030;-73
2023/07/29 00:06:31;;;;;;;3.70;3.00;;;;;;;-145.41;100.00;58600.66;4990829;28;20046;-72
2023/07/29 00:08:57;;;;;;;4.40;3.10;;;;;;;-145.41;100.00;58600.66;4992561;28;20034;-72
2023/07/29 00:11:22;;;;;;;4.75;3.20;;;;;;;-145.41;100.00;58600.66;4991493;28;20083;-72
2023/07/29 00:13:49;;;;;;;4.65;3.45;;;;;;;-145.41;100.00;58600.66;4991400;28;20074;-73
2023/07/29 00:16:16;;;;;;;4.07;3.15;;;;;;;-145.41;100.00;58600.66;4991272;28;20039;-72
2023/07/29 00:18:42;;;;;;;4.45;3.38;;;;;;;-145.41;100.00;58600.66;4990428;28;20035;-73
2023/07/29 00:21:08;;;;;;;4.38;3.50;;;;;;;-145.41;100.00;58600.66;4991076;28;20056;-73
2023/07/29 00:23:33;;;;;;;4.13;2.72;;;;;;;-145.41;100.00;58600.66;4991131;28;20665;-73
2023/07/29 00:25:58;;;;;;;4.75;3.60;;;;;;;-145.41;100.00;58600.66;4991166;28;20049;-72
2023/07/29 00:28:24;;;;;;;4.28;3.30;;;;;;;-145.41;100.00;58600.66;4991155;28;20042;-73
2023/07/29 00:30:49;;;;;;;4.97;3.20;;;;;;;-145.41;100.00;58600.66;4990394;28;20456;-72
2023/07/29 00:33:14;;;;;;;3.75;3.00;;;;;;;-145.41;100.00;58600.66;4990874;28;20041;-73
2023/07/29 00:35:40;;;;;;;3.92;2.72;;;;;;;-145.41;100.00;58600.66;4991182;28;20061;-74
2023/07/29 00:38:05;;;;;;;4.60;3.45;;;;;;;-145.41;100.00;58600.66;4992073;28;20038;-74
2023/07/29 00:40:35;;;;;;;4.18;2.97;;;;;;;-145.41;100.00;58600.66;4992577;28;20077;-73
2023/07/29 00:43:00;;;;;;;3.63;2.88;;;;;;;-145.41;100.00;58600.66;4994840;28;20034;-73
2023/07/29 00:45:27;;;;;;;4.47;3.13;;;;;;;-145.41;100.00;58600.66;4993170;28;20145;-74
2023/07/29 00:47:52;;;;;;;4.55;3.42;;;;;;;-145.41;100.00;58600.66;4992983;28;20053;-73
2023/07/29 00:50:18;;;;;;;3.80;3.13;;;;;;;-145.41;100.00;58600.66;4993826;28;20489;-73
2023/07/29 00:52:44;;;;;;;4.28;2.72;;;;;;;-145.41;100.00;58600.66;4992493;28;20490;-74
2023/07/29 00:55:09;;;;;;;4.20;3.05;;;;;;;-145.41;100.00;58600.66;4994436;28;20109;-74
2023/07/29 00:57:35;;;;;;;3.85;2.83;;;;;;;-145.41;100.00;58600.66;4993052;28;20481;-74
2023/07/29 01:00:01;;;;;;;3.67;2.42;;;;;;;-145.41;100.00;58600.66;4992493;28;20107;-74
2023/07/29 01:02:26;;;;;;;4.68;3.13;;;;;;;-145.41;100.00;58600.66;4992110;28;20038;-73
2023/07/29 01:04:54;;;;;;;4.15;3.00;;;;;;;-145.41;100.00;58600.66;4991649;28;20058;-73
2023/07/29 01:07:34;;;;;;;4.20;3.00;;;;;;;-145.41;100.00;58600.66;4992044;28;20041;-73
2023/07/29 01:09:59;;;;;;;4.32;2.53;;;;;;;-145.41;100.00;58600.66;4990785;28;20485;-72
2023/07/29 01:13:04;;;;;;;3.72;2.72;;;;;;;-145.41;100.00;58600.66;4992400;28;20046;-73
2023/07/29 01:15:42;;;;;;;4.20;2.58;;;;;;;-145.41;100.00;58600.66;4984010;28;20081;-73
2023/07/29 01:18:23;;;;;;;3.75;2.30;;;;;;;-145.41;100.00;58600.66;4993515;28;20041;-72
2023/07/29 01:20:52;;;;;;;3.65;2.20;;;;;;;-145.41;100.00;58600.66;4985825;28;20042;-72
2023/07/29 01:23:32;;;;;;;3.03;1.92;;;;;;;-145.41;100.00;58600.66;4992157;28;20100;-73
2023/07/29 01:25:58;;;;;;;3.38;2.13;;;;;;;-145.41;100.00;58600.66;5007938;28;20088;-73
2023/07/29 01:28:23;;;;;;;2.78;1.92;;;;;;;-145.41;100.00;58600.66;5017138;28;20491;-72
2023/07/29 01:30:53;;;;;;;3.50;2.22;;;;;;;-145.41;100.00;58600.66;4992741;28;20033;-72
2023/07/29 01:33:38;;;;;;;3.47;2.38;;;;;;;-145.41;100.00;58600.66;4992525;28;20030;-73
2023/07/29 01:36:14;;;;;;;4.38;2.47;;;;;;;-145.41;100.00;58600.66;4987534;28;20042;-73
2023/07/29 01:38:43;;;;;;;5.70;2.83;;;;;;;-145.41;100.00;58600.66;4991416;28;20038;-73
2023/07/29 01:41:09;;;;;;;4.60;2.53;;;;;;;-145.41;100.00;58600.66;4997322;28;20030;-72
2023/07/29 01:43:42;;;;;;;5.95;2.80;;;;;;;-145.41;100.00;58600.66;4994908;28;20038;-73
2023/07/29 01:46:12;;;;;;;3.97;2.65;;;;;;;-145.41;100.00;58600.66;4994404;28;20085;-73
2023/07/29 01:48:38;;;;;;;4.20;2.80;;;;;;;-145.41;100.00;58600.66;4993846;28;20046;-73
2023/07/29 01:51:04;;;;;;;3.50;2.70;;;;;;;-145.41;100.00;58600.66;4996060;28;20030;-73
2023/07/29 01:53:29;;;;;;;4.10;2.78;;;;;;;-145.41;100.00;58600.66;4992497;28;20054;-73
2023/07/29 01:55:56;;;;;;;4.32;2.75;;;;;;;-145.41;100.00;58600.66;4992345;28;20053;-73
2023/07/29 01:58:22;;;;;;;3.92;2.38;;;;;;;-145.41;100.00;58600.66;4992048;28;20117;-74
2023/07/29 02:00:47;;;;;;;3.58;2.55;;;;;;;-145.41;100.00;58600.66;4992059;28;20106;-74
2023/07/29 02:03:13;;;;;;;4.28;3.15;;;;;;;-145.41;100.00;58600.66;4990026;28;20437;-74
2023/07/29 02:05:38;;;;;;;4.05;2.97;;;;;;;-145.41;100.00;58600.66;4993921;28;20109;-73
2023/07/29 02:08:04;;;;;;;7.20;3.53;;;;;;;-145.41;100.00;58600.66;4993128;28;20049;-73
2023/07/29 02:10:29;;;;;;;4.13;2.88;;;;;;;-145.41;100.00;58600.66;4992277;28;20030;-73
2023/07/29 02:12:54;;;;;;;3.97;2.75;;;;;;;-145.41;100.00;58600.66;4992934;28;20084;-73
2023/07/29 02:15:20;;;;;;;4.45;2.63;;;;;;;-145.41;100.00;58600.66;4993197;28;20474;-73
2023/07/29 02:17:45;;;;;;;4.10;3.00;;;;;;;-145.41;100.00;58600.66;4999719;28;20421;-73
2023/07/29 02:20:11;;;;;;;3.58;2.28;;;;;;;-145.41;100.00;58600.66;4990916;28;20022;-73
2023/07/29 02:22:37;;;;;;;4.07;2.70;;;;;;;-145.41;100.00;58600.66;4991711;28;20038;-73
2023/07/29 02:25:03;;;;;;;4.10;2.88;;;;;;;-145.41;100.00;58600.66;4991580;28;20034;-73
2023/07/29 02:27:28;;;;;;;3.20;2.30;;;;;;;-145.41;100.00;58600.66;4992683;28;20030;-72
2023/07/29 02:29:54;;;;;;;3.63;2.58;;;;;;;-145.41;100.00;58600.66;4990706;28;20061;-73
2023/07/29 02:32:20;;;;;;;3.85;2.30;;;;;;;-145.41;100.00;58600.66;4991193;28;20022;-73
2023/07/29 02:34:45;;;;;;;3.88;2.33;;;;;;;-145.41;100.00;58600.66;4992597;28;20042;-73
2023/07/29 02:37:11;;;;;;;4.07;2.67;;;;;;;-145.41;100.00;58600.66;4991403;28;20041;-73
2023/07/29 02:39:37;;;;;;;4.93;3.25;;;;;;;-145.41;100.00;58600.66;4988299;28;20034;-73
2023/07/29 02:42:03;;;;;;;4.72;2.38;;;;;;;-145.41;100.00;58600.66;4991149;28;20029;-73
2023/07/29 02:44:29;;;;;;;3.95;3.05;;;;;;;-145.41;100.00;58600.66;4991004;28;20121;-73
2023/07/29 02:46:55;;;;;;;4.13;3.30;;;;;;;-145.41;100.00;58600.66;4989190;28;20109;-73
2023/07/29 02:49:21;;;;;;;4.25;2.78;;;;;;;-145.41;100.00;58600.66;4989416;28;20060;-73
2023/07/29 02:51:46;;;;;;;3.75;2.63;;;;;;;-145.41;100.00;58600.66;4990876;28;20130;-73
2023/07/29 02:54:12;;;;;;;3.03;2.15;;;;;;;-145.41;100.00;58600.66;4991087;28;20060;-73
2023/07/29 02:56:37;;;;;;;4.18;2.80;;;;;;;-145.41;100.00;58600.66;4991038;28;20034;-72
2023/07/29 02:59:02;;;;;;;4.65;2.40;;;;;;;-145.41;100.00;58600.66;4991204;28;20084;-72
2023/07/29 03:01:29;;;;;;;3.20;2.28;;;;;;;-145.41;100.00;58600.66;4992277;28;20039;-73
2023/07/29 03:03:55;;;;;;;3.65;2.13;;;;;;;-145.41;100.00;58600.66;4991228;28;20108;-73
2023/07/29 03:06:20;;;;;;;3.55;2.05;;;;;;;-145.41;100.00;58600.66;4991905;28;20102;-73
2023/07/29 03:08:45;;;;;;;3.10;1.70;;;;;;;-145.41;100.00;58600.66;4992316;28;20030;-72
2023/07/29 03:11:13;;;;;;;3.05;1.67;;;;;;;-145.41;100.00;58600.66;4989890;28;21041;-73
2023/07/29 03:13:39;;;;;;;3.70;1.67;;;;;;;-145.41;100.00;58600.66;4991681;28;20082;-73
2023/07/29 03:16:05;;;;;;;2.80;1.48;;;;;;;-145.41;100.00;58600.66;4988387;28;20061;-73
2023/07/29 03:18:30;;;;;;;2.35;1.40;;;;;;;-145.41;100.00;58600.66;4992575;28;20038;-73
2023/07/29 03:20:56;;;;;;;3.47;1.58;;;;;;;-145.41;100.00;58600.66;4991231;28;20095;-72
2023/07/29 03:23:21;;;;;;;3.63;1.42;;;;;;;-145.41;100.00;58600.66;4991962;28;20030;-73
2023/07/29 03:25:49;;;;;;;1.92;1.30;;;;;;;-145.41;100.00;58600.66;4990675;28;20034;-73
2023/07/29 03:28:14;;;;;;;2.60;1.48;;;;;;;-145.41;100.00;58600.66;4991114;28;20042;-73
2023/07/29 03:30:40;;;;;;;2.00;1.35;;;;;;;-145.41;100.00;58600.66;4990088;28;20037;-73
2023/07/29 03:33:06;;;;;;;3.10;1.42;;;;;;;-145.41;100.00;58600.66;4990542;28;20073;-73
2023/07/29 03:35:31;;;;;;;4.20;1.50;;;;;;;-145.41;100.00;58600.66;4991558;28;20034;-73
2023/07/29 03:37:56;;;;;;;3.75;1.80;;;;;;;-145.41;100.00;58600.66;4992698;28;20031;-73
2023/07/29 03:40:22;;;;;;;2.28;1.33;;;;;;;-145.41;100.00;58600.66;4992891;28;20036;-73
2023/07/29 03:42:47;;;;;;;4.15;1.60;;;;;;;-145.41;100.00;58600.66;4990227;28;20073;-73
2023/07/29 03:45:13;;;;;;;2.55;1.50;;;;;;;-145.41;100.00;58600.66;4990343;28;20041;-73
2023/07/29 03:47:38;;;;;;;2.65;1.70;;;;;;;-145.41;100.00;58600.66;4985164;28;20050;-72
2023/07/29 03:50:05;;;;;;;2.47;1.55;;;;;;;-145.41;100.00;58600.66;4990945;28;20524;-73
2023/07/29 03:52:30;;;;;;;2.65;1.35;;;;;;;-145.41;100.00;58600.66;4990607;28;20026;-75
2023/07/29 03:54:56;;;;;;;3.22;1.70;;;;;;;-145.41;100.00;58600.66;4991621;28;20121;-74
2023/07/29 03:57:21;;;;;;;2.58;1.45;;;;;;;-145.41;100.00;58600.66;4988054;28;20089;-74
2023/07/29 03:59:46;;;;;;;2.78;1.40;;;;;;;-145.41;100.00;58600.66;4990694;28;20041;-73
2023/07/29 04:02:12;;;;;;;2.38;1.30;;;;;;;-145.41;100.00;58600.66;4989467;28;20461;-73
2023/07/29 04:04:37;;;;;;;3.45;1.35;;;;;;;-145.41;100.00;58600.66;4988264;28;20034;-73
2023/07/29 04:07:03;;;;;;;4.22;1.75;;;;;;;-145.41;100.00;58600.66;4990009;28;20026;-73
2023/07/29 04:09:28;;;;;;;2.38;1.10;;;;;;;-145.41;100.00;58600.66;4991058;28;20159;-72
2023/07/29 04:11:53;;;;;;;2.13;1.20;;;;;;;-145.41;100.00;58600.66;4989888;28;20056;-73
2023/07/29 04:14:19;;;;;;;3.40;1.20;;;;;;;-145.41;100.00;58600.66;4990490;28;20042;-73
2023/07/29 04:16:45;;;;;;;1.77;1.08;;;;;;;-145.41;100.00;58600.66;4993422;28;20076;-73
2023/07/29 04:19:10;;;;;;;2.55;1.30;;;;;;;-145.41;100.00;58600.66;4994362;28;20033;-73
2023/07/29 04:21:36;;;;;;;3.33;1.35;;;;;;;-145.41;100.00;58600.66;4993715;28;20121;-73
2023/07/29 04:24:01;;;;;;;5.55;1.40;;;;;;;-145.41;100.00;58600.66;4994940;28;20037;-73
2023/07/29 04:26:26;;;;;;;2.40;1.40;;;;;;;-145.41;100.00;58600.66;4995000;28;20038;-73
2023/07/29 04:28:52;;;;;;;2.05;1.08;;;;;;;-145.41;100.00;58600.66;4994280;28;20069;-73
2023/07/29 04:31:17;;;;;;;1.83;1.10;;;;;;;-145.41;100.00;58600.66;4993302;28;20045;-73
2023/07/29 04:33:42;;;;;;;2.70;1.00;;;;;;;-145.41;100.00;58600.66;4993734;28;20046;-73
2023/07/29 04:36:07;;;;;;;1.58;1.00;;;;;;;-145.41;100.00;58600.66;4994697;28;20034;-73
2023/07/29 04:38:33;;;;;;;1.52;0.90;;;;;;;-145.41;100.00;58600.66;4995452;28;20034;-73
2023/07/29 04:41:01;;;;;;;2.33;1.13;;;;;;;-145.41;100.00;58600.66;4991929;28;20031;-73
2023/07/29 04:43:31;;;;;;;3.42;0.90;;;;;;;-145.41;100.00;58600.66;4993304;28;20489;-73
2023/07/29 04:45:57;;;;;;;1.55;1.10;;;;;;;-145.41;100.00;58600.66;4999866;28;20174;-73
2023/07/29 04:48:22;;;;;;;2.65;1.15;;;;;;;-145.41;100.00;58600.66;4994424;28;20117;-73
2023/07/29 04:50:47;;;;;;;2.00;1.15;;;;;;;-145.41;100.00;58600.66;4985818;28;20113;-73
2023/07/29 04:53:13;;;;;;;1.77;0.90;;;;;;;-145.41;100.00;58600.66;4994620;28;20156;-73
2023/07/29 04:55:40;;;;;;;3.40;0.95;;;;;;;-145.41;100.00;58600.66;4993433;28;20093;-73
2023/07/29 04:58:05;;;;;;;2.83;1.38;;;;;;;-145.41;100.00;58600.66;4993075;28;20441;-73
2023/07/29 05:00:30;;;;;;;1.83;0.93;;;;;;;-145.41;100.00;58600.66;4992088;28;20121;-73
2023/07/29 05:02:56;;;;;;;1.88;0.90;;;;;;;-145.41;100.00;58600.66;4993172;28;20061;-73
2023/07/29 05:05:22;;;;;;;1.60;0.80;;;;;;;-145.41;100.00;58600.66;4994210;28;20057;-73
2023/07/29 05:07:47;;;;;;;1.98;1.08;;;;;;;-145.41;100.00;58600.66;4991876;28;20049;-73
2023/07/29 05:10:13;;;;;;;2.00;1.00;;;;;;;-145.41;100.00;58600.66;4992274;28;20133;-73
2023/07/29 05:12:38;;;;;;;1.80;0.93;;;;;;;-145.41;100.00;58600.66;4992752;28;20108;-72
2023/07/29 05:15:04;;;;;;;2.67;1.10;;;;;;;-145.41;100.00;58600.66;4990529;28;20105;-73
2023/07/29 05:17:31;;;;;;;1.17;0.80;;;;;;;-145.41;100.00;58600.66;4991716;28;20034;-73
2023/07/29 05:19:57;;;;;;;1.90;0.90;;;;;;;-145.41;100.00;58600.66;4991875;28;20374;-73
2023/07/29 05:22:23;;;;;;;2.45;0.80;;;;;;;-145.41;100.00;58600.66;4991114;28;20038;-73
2023/07/29 05:24:48;;;;;;;1.50;0.90;;;;;;;-145.41;100.00;58600.66;4993969;28;20037;-74
2023/07/29 05:27:13;;;;;;;2.35;0.98;;;;;;;-145.41;100.00;58600.66;4991087;28;20552;-73
2023/07/29 05:29:39;;;;;;;1.48;0.90;;;;;;;-145.41;100.00;58600.66;4990433;28;20030;-73
2023/07/29 05:32:04;;;;;;;1.45;0.90;;;;;;;-145.41;100.00;58600.66;4991781;28;20040;-73
2023/07/29 05:34:30;;;;;;;0.90;0.60;;;;;;;-145.41;100.00;58600.66;4990890;28;20031;-73
2023/07/29 05:36:55;;;;;;;1.27;0.80;;;;;;;-145.41;100.00;58600.66;4992290;28;20026;-74
2023/07/29 05:39:20;;;;;;;2.35;1.10;;;;;;;-145.41;100.00;58600.66;4993950;28;20038;-73
2023/07/29 05:41:47;;;;;;;1.42;0.70;;;;;;;-145.41;100.00;58600.66;4991564;28;20750;-73
2023/07/29 05:44:12;;;;;;;1.50;0.70;;;;;;;-145.41;100.00;58600.66;4991583;28;20038;-72
2023/07/29 05:46:38;;;;;;;1.67;0.82;;;;;;;-145.41;100.00;58600.66;4990990;28;20114;-73
2023/07/29 05:49:03;;;;;;;0.95;0.60;;;;;;;-145.41;100.00;58600.66;4989767;28;20058;-73
2023/07/29 05:51:28;;;;;;;1.30;0.77;;;;;;;-145.41;100.00;58600.66;4990754;28;20473;-73
2023/07/29 05:53:54;;;;;;;1.30;0.80;;;;;;;-145.41;100.00;58600.66;4990968;28;20069;-73
2023/07/29 05:56:19;;;;;;;1.25;0.60;;;;;;;-145.41;100.00;58600.66;4990963;28;20038;-74
2023/07/29 05:58:44;;;;;;;1.55;0.77;;;;;;;-145.41;100.00;58600.66;4992903;28;20061;-73
2023/07/29 06:01:10;;;;;;;2.22;0.65;;;;;;;-145.41;100.00;58600.66;4993335;28;20482;-73
2023/07/29 06:03:35;;;;;;;1.52;0.70;;;;;;;-145.41;100.00;58600.66;4991364;28;20038;-75
2023/07/29 06:06:01;;;;;;;1.95;0.73;;;;;;;-145.41;100.00;58600.66;4997436;28;20026;-75
2023/07/29 06:08:28;;;;;;;2.67;0.85;;;;;;;-145.41;100.00;58600.66;4991890;28;20042;-75
2023/07/29 06:10:53;;;;;;;1.10;0.70;;;;;;;-145.41;100.00;58600.66;4992301;28;20022;-74
2023/07/29 06:13:19;;;;;;;1.73;0.75;;;;;;;-145.41;100.00;58600.66;4991702;28;20032;-75
2023/07/29 06:15:44;;;;;;;1.27;0.70;;;;;;;-145.41;100.00;58600.66;4989053;28;20038;-75
2023/07/29 06:18:10;;;;;;;1.17;0.70;;;;;;;-145.41;100.00;58600.66;4992789;28;20065;-75
2023/07/29 06:20:35;;;;;;;1.90;0.80;;;;;;;-145.41;100.00;58600.66;4992023;28;20485;-75
2023/07/29 06:23:02;;;;;;;2.08;0.82;;;;;;;-145.41;100.00;58600.66;4987875;28;20027;-75
2023/07/29 06:25:27;;;;;;;3.15;0.98;;;;;;;-145.41;100.00;58600.66;4991800;28;20117;-75
2023/07/29 06:27:52;;;;;;;1.33;0.80;;;;;;;-145.41;100.00;58600.66;4992002;28;20068;-75
2023/07/29 06:30:18;;;;;;;2.22;0.80;;;;;;;-145.41;100.00;58600.66;4989414;28;20064;-75
2023/07/29 06:32:43;;;;;;;1.17;0.70;;;;;;;-145.41;100.00;58600.66;4992234;28;20034;-75
2023/07/29 06:35:08;;;;;;;1.67;1.00;;;;;;;-145.41;100.00;58600.66;4992120;28;20038;-75
2023/07/29 06:37:34;;;;;;;1.92;0.90;;;;;;;-145.41;100.00;58600.66;4992570;28;20038;-75
2023/07/29 06:39:59;;;;;;;2.35;0.90;;;;;;;-145.41;100.00;58600.66;4989931;28;20081;-75
2023/07/29 06:42:25;;;;;;;0.77;0.47;;;;;;;-145.41;100.00;58600.66;4990119;28;20511;-75
2023/07/29 06:44:50;;;;;;;1.67;0.80;;;;;;;-145.41;100.00;58600.66;4992181;28;20034;-75
2023/07/29 06:47:15;;;;;;;1.25;0.70;;;;;;;-145.41;100.00;58600.66;4990302;28;20030;-75
2023/07/29 06:49:41;;;;;;;1.35;0.70;;;;;;;-145.41;100.00;58600.66;4991304;28;20046;-75
2023/07/29 06:52:06;;;;;;;1.63;0.80;;;;;;;-145.41;100.00;58600.66;4986130;28;20057;-75
2023/07/29 06:54:32;;;;;;;1.65;0.90;;;;;;;-145.41;100.00;58600.66;4991859;28;20038;-75
2023/07/29 06:56:58;;;;;;;1.92;0.80;;;;;;;-145.41;100.00;58600.66;4991250;28;20038;-76
2023/07/29 06:59:24;;;;;;;1.88;0.70;;;;;;;-145.41;100.00;58600.66;4991413;28;20088;-74
2023/07/29 07:01:50;;;;;;;1.10;0.63;;;;;;;-145.41;100.00;58600.66;4988557;28;20046;-74
2023/07/29 07:04:15;;;;;;;2.08;0.80;;;;;;;-145.41;100.00;58600.66;4991087;28;20118;-75
2023/07/29 07:06:40;;;;;;;2.15;0.90;;;;;;;-145.41;100.00;58600.66;4991837;28;20042;-75
2023/07/29 07:09:06;;;;;;;3.55;0.75;;;;;;;-145.41;100.00;58600.66;4994295;28;20037;-75
2023/07/29 07:11:31;;;;;;;1.63;0.70;;;;;;;-145.41;100.00;58600.66;4992045;28;20032;-75
2023/07/29 07:13:56;;;;;;;1.65;0.75;;;;;;;-145.41;100.00;58600.66;4991964;28;20054;-75
2023/07/29 07:16:22;;;;;;;1.38;0.90;;;;;;;-145.41;100.00;58600.66;4991686;28;20053;-75
2023/07/29 07:18:47;;;;;;;1.35;0.80;;;;;;;-145.41;100.00;58600.66;4991267;28;20038;-75
2023/07/29 07:21:12;;;;;;;1.38;0.70;;;;;;;-145.41;100.00;58600.66;4991212;28;20038;-75
2023/07/29 07:23:39;;;;;;;1.15;0.73;;;;;;;-145.41;100.00;58600.66;4987859;28;20038;-75
2023/07/29 07:26:04;;;;;;;1.52;0.90;;;;;;;-145.41;100.00;58600.66;4991777;28;20034;-75
2023/07/29 07:28:29;;;;;;;2.40;0.80;;;;;;;-145.41;100.00;58600.66;4991389;28;20037;-75
2023/07/29 07:30:55;;;;;;;1.10;0.80;;;;;;;-145.41;100.00;58600.66;4990747;28;20464;-75
2023/07/29 07:33:21;;;;;;;2.75;1.08;;;;;;;-145.41;100.00;58600.66;4991657;28;20057;-76
2023/07/29 07:35:46;;;;;;;1.45;0.65;;;;;;;-145.41;100.00;58600.66;4991455;28;20096;-75
2023/07/29 07:38:12;;;;;;;1.48;0.90;;;;;;;-145.41;100.00;58600.66;4994091;28;20034;-76
2023/07/29 07:40:37;;;;;;;1.70;0.93;;;;;;;-145.41;100.00;58600.66;4990394;28;20030;-76
2023/07/29 07:43:03;;;;;;;1.48;0.80;;;;;;;-145.41;100.00;58600.66;4990405;28;20066;-75
2023/07/29 07:45:28;;;;;;;1.05;0.63;;;;;;;-145.41;100.00;58600.66;4986494;28;20498;-75
2023/07/29 07:47:53;;;;;;;0.82;0.60;;;;;;;-145.41;100.00;58600.66;4990137;28;20426;-75
2023/07/29 07:50:19;;;;;;;1.65;0.80;;;;;;;-145.41;100.00;58600.66;4994349;28;20464;-75
2023/07/29 07:52:44;;;;;;;1.35;0.80;;;;;;;-145.41;100.00;58600.66;4998078;28;20034;-75
2023/07/29 07:55:10;;;;;;;1.23;0.70;;;;;;;-145.41;100.00;58600.66;4998072;28;20042;-75
2023/07/29 07:57:35;;;;;;;2.88;0.95;;;;;;;-145.41;100.00;58600.66;4997615;28;20034;-75
2023/07/29 08:00:00;;;;;;;1.60;0.70;;;;;;;-145.41;100.00;58600.66;4997324;28;20034;-75
2023/07/29 08:02:26;;;;;;;1.08;0.60;;;;;;;-145.41;100.00;58600.66;4997969;28;20073;-75
2023/07/29 08:04:51;;;;;;;1.92;0.90;;;;;;;-145.41;100.00;58600.66;4997646;28;20044;-75
2023/07/29 08:07:16;;;;;;;1.98;0.88;;;;;;;-145.41;100.00;58600.66;4997880;28;20030;-75
2023/07/29 08:09:42;;;;;;;1.38;0.90;;;;;;;-145.41;100.00;58600.66;4997303;28;20077;-75
2023/07/29 08:12:07;;;;;;;1.77;0.82;;;;;;;-145.41;100.00;58600.66;4997812;28;20078;-75
2023/07/29 08:14:33;;;;;;;1.85;0.90;;;;;;;-145.41;100.00;58600.66;4997861;28;20042;-75
2023/07/29 08:16:58;;;;;;;1.23;0.60;;;;;;;-145.41;100.00;58600.66;4997480;28;20093;-75
2023/07/29 08:19:23;;;;;;;1.98;0.85;;;;;;;-145.41;100.00;58600.66;4997116;28;20038;-75
2023/07/29 08:21:49;;;;;;;1.83;0.85;;;;;;;-145.41;100.00;58600.66;4997570;28;20042;-75
2023/07/29 08:24:14;;;;;;;2.58;0.98;;;;;;;-145.41;100.00;58600.66;4997606;28;20069;-75
2023/07/29 08:26:39;;;;;;;1.17;0.70;;;;;;;-145.41;100.00;58600.66;4997468;28;20057;-75
2023/07/29 08:29:05;;;;;;;2.05;0.80;;;;;;;-145.41;100.00;58600.66;4996840;28;20042;-75
2023/07/29 08:31:33;;;;;;;1.20;0.80;;;;;;;-145.41;100.00;58600.66;4997758;28;20046;-75
2023/07/29 08:33:59;;;;;;;1.15;0.63;;;;;;;-145.41;100.00;58600.66;4997229;28;20031;-75
2023/07/29 08:36:24;;;;;;;1.55;0.60;;;;;;;-145.41;100.00;58600.66;4997556;28;20463;-75
2023/07/29 08:38:49;;;;;;;2.22;0.60;;;;;;;-145.41;100.00;58600.66;4997250;28;20038;-75
2023/07/29 08:41:36;;;;;;;1.15;0.60;;;;;;;-145.41;100.00;58600.66;4997486;28;20038;-75
2023/07/29 08:44:16;;;;;;;1.33;0.90;;;;;;;-145.41;100.00;58600.66;4996493;28;20034;-75
2023/07/29 08:46:42;;;;;;;0.80;0.55;;;;;;;-145.41;100.00;58600.66;4997524;28;20038;-75
2023/07/29 08:49:08;;;;;;;1.30;0.68;;;;;;;-145.41;100.00;58600.66;4996693;28;20115;-75
2023/07/29 08:51:34;;;;;;;2.08;0.70;;;;;;;-145.41;100.00;58600.66;4997317;28;20030;-75
2023/07/29 08:54:01;;;;;;;0.95;0.70;;;;;;;-145.41;100.00;58600.66;4997249;28;20085;-75
2023/07/29 08:56:27;;;;;;;1.40;0.68;;;;;;;-145.41;100.00;58600.66;4997566;28;20044;-75
2023/07/29 08:58:53;;;;;;;2.00;0.80;;;;;;;-145.41;100.00;58600.66;5000117;28;20038;-75
2023/07/29 09:01:19;;;;;;;1.48;0.90;;;;;;;-145.41;100.00;58600.66;4995841;28;20026;-75
2023/07/29 09:03:44;;;;;;;0.77;0.50;;;;;;;-145.41;100.00;58600.66;4994722;28;20500;-75
2023/07/29 09:06:10;;;;;;;1.05;0.70;;;;;;;-145.41;100.00;58600.66;4994131;28;20508;-75
2023/07/29 09:08:36;;;;;;;1.55;0.70;;;;;;;-145.41;100.00;58600.66;4994854;28;20030;-75
2023/07/29 09:11:02;;;;;;;0.85;0.55;;;;;;;-145.41;100.00;58600.66;4993761;28;20414;-76
2023/07/29 09:13:28;;;;;;;1.35;0.70;;;;;;;-145.41;100.00;58600.66;4992138;28;20121;-75
2023/07/29 09:15:56;;;;;;;0.80;0.50;;;;;;;-145.41;100.00;58600.66;4994078;28;20042;-75
2023/07/29 09:18:22;;;;;;;1.02;0.52;;;;;;;-145.41;100.00;58600.66;4994008;28;20034;-75
2023/07/29 09:20:48;;;;;;;0.93;0.57;;;;;;;-145.41;100.00;58600.66;4992948;28;20084;-75
2023/07/29 09:23:13;;;;;;;1.73;0.80;;;;;;;-145.41;100.00;58600.66;4994113;28;20061;-75
2023/07/29 09:25:39;;;;;;;1.42;0.75;;;;;;;-145.41;100.00;58600.66;4990675;28;20076;-75
2023/07/29 09:28:10;;;;;;;1.00;0.70;;;;;;;-145.41;100.00;58600.66;4993856;28;20512;-75
2023/07/29 09:30:37;;;;;;;1.25;0.70;;;;;;;-145.41;100.00;58600.66;4993123;28;20378;-75
2023/07/29 09:33:02;;;;;;;2.17;0.75;;;;;;;-145.41;100.00;58600.66;4993992;28;20092;-75
2023/07/29 09:35:30;;;;;;;1.15;0.60;;;;;;;-145.41;100.00;58600.66;4993536;28;20493;-75
2023/07/29 09:37:55;;;;;;;1.38;0.90;;;;;;;-145.41;100.00;58600.66;4993843;28;20042;-75
2023/07/29 09:40:20;;;;;;;1.13;0.70;;;;;;;-145.41;100.00;58600.66;4993063;28;20172;-75
2023/07/29 09:42:53;;;;;;;4.97;0.80;;;;;;;-145.41;100.00;58600.66;4993760;28;20039;-75
2023/07/29 09:45:20;;;;;;;1.42;0.70;;;;;;;-145.41;100.00;58600.66;4993639;28;20038;-75
2023/07/29 09:47:47;;;;;;;1.38;0.70;;;;;;;-145.41;100.00;58600.66;4993229;28;20030;-75
2023/07/29 09:50:12;;;;;;;1.25;0.52;;;;;;;-145.41;100.00;58600.66;4992409;28;20041;-75
2023/07/29 09:52:38;;;;;;;1.48;0.80;;;;;;;-145.41;100.00;58600.66;4988225;28;20250;-75
2023/07/29 09:55:04;;;;;;;0.90;0.60;;;;;;;-145.41;100.00;58600.66;4990476;28;20037;-75
2023/07/29 09:57:29;;;;;;;0.70;0.50;;;;;;;-145.41;100.00;58600.66;4993901;28;20045;-76
2023/07/29 09:59:56;;;;;;;1.95;0.70;;;;;;;-145.41;100.00;58600.66;4992739;28;20038;-76
2023/07/29 10:02:22;;;;;;;2.63;0.50;;;;;;;-145.41;100.00;58600.66;4993012;28;20544;-75
2023/07/29 10:04:47;;;;;;;0.90;0.60;;;;;;;-145.41;100.00;58600.66;4992970;28;20030;-76
2023/07/29 10:07:14;;;;;;;0.80;0.60;;;;;;;-145.41;100.00;58600.66;4994414;28;20034;-75
2023/07/29 10:09:40;;;;;;;1.10;0.70;;;;;;;-145.41;100.00;58600.66;4992528;28;20461;-76
2023/07/29 10:12:06;;;;;;;1.48;0.85;;;;;;;-145.41;100.00;58600.66;4992460;28;20031;-76
2023/07/29 10:14:32;;;;;;;1.88;0.90;;;;;;;-145.41;100.00;58600.66;4993145;28;20079;-75
2023/07/29 10:16:58;;;;;;;2.38;0.82;;;;;;;-145.41;100.00;58600.66;4992876;28;20034;-75
2023/07/29 10:19:25;;;;;;;4.13;0.88;;;;;;;-145.41;100.00;58600.66;4992088;28;20471;-75
2023/07/29 10:21:51;;;;;;;2.00;0.90;;;;;;;-145.41;100.00;58600.66;4992790;28;20085;-75
2023/07/29 10:24:22;;;;;;;1.45;0.85;;;;;;;-145.41;100.00;58600.66;4993038;28;20038;-75
2023/07/29 10:26:49;;;;;;;1.85;1.02;;;;;;;-145.41;100.00;58600.66;4992180;28;20106;-75
2023/07/29 10:29:20;;;;;;;2.10;0.85;;;;;;;-145.41;100.00;58600.66;4991839;28;20061;-76
2023/07/29 10:31:45;;;;;;;1.23;0.80;;;;;;;-145.41;100.00;58600.66;4991146;28;20023;-75
2023/07/29 10:34:12;;;;;;;1.85;0.80;;;;;;;-145.41;100.00;58600.66;4992696;28;20543;-75
2023/07/29 10:36:38;;;;;;;2.25;0.82;;;;;;;-145.41;100.00;58600.66;4989891;28;20049;-76
2023/07/29 10:39:03;;;;;;;2.80;0.70;;;;;;;-145.41;100.00;58600.66;4993844;28;20038;-75
2023/07/29 10:41:54;;;;;;;2.05;0.85;;;;;;;-145.41;100.00;58600.66;4992452;28;20061;-75
2023/07/29 10:44:41;;;;;;;1.70;1.02;;;;;;;-145.41;100.00;58600.66;4992632;28;20041;-75
2023/07/29 10:47:40;;;;;;;1.25;0.80;;;;;;;-145.41;100.00;58600.66;4989339;28;20077;-75
2023/07/29 10:50:18;;;;;;;2.33;0.70;;;;;;;-145.41;100.00;58600.66;4987735;28;20074;-75
2023/07/29 10:52:43;;;;;;;1.48;0.80;;;;;;;-145.41;100.00;58600.66;4992049;28;20086;-75
2023/07/29 10:55:28;;;;;;;2.55;0.93;;;;;;;-145.41;100.00;58600.66;4992222;28;20135;-75
2023/07/29 10:58:16;;;;;;;1.35;0.65;;;;;;;-145.41;100.00;58600.66;4992308;28;20023;-75
2023/07/29 11:00:43;;;;;;;3.08;0.60;;;;;;;-145.41;100.00;58600.66;4989671;28;20552;-75
2023/07/29 11:03:09;;;;;;;1.85;0.60;;;;;;;-145.41;100.00;58600.66;4992130;28;20037;-76
2023/07/29 11:05:51;;;;;;;1.58;0.77;;;;;;;-145.41;100.00;58600.66;4992026;28;20050;-75
2023/07/29 11:08:30;;;;;;;2.42;0.60;;;;;;;-145.41;100.00;58600.66;4993854;28;20039;-75